Time;durP1;ratioP1;P1;durP2;ratioP2;P2;SDS_P1;SDS_P2;PMS_P1;PMS_P2;Temp;Humidity;BMP_temperature;BMP_pressure;BME280_temperature;BME280_humidity;BME280_pressure;Samples;Min_cycle;Max_cycle;Signal;HPM_P1;HPM_P2
2023/06/24 00:01:18;;;;;;;14.15;11.68;;;;;;;16.71;87.15;98611.38;4954119;28;20061;-64
2023/06/24 00:03:46;;;;;;;16.92;12.50;;;;;;;16.67;87.64;98610.91;4955639;28;20051;-64
2023/06/24 00:06:18;;;;;;;15.48;11.80;;;;;;;16.66;87.00;98617.28;4955367;28;20533;-63
2023/06/24 00:08:44;;;;;;;19.27;13.70;;;;;;;16.66;87.72;98611.06;4954397;28;20497;-63
2023/06/24 00:11:10;;;;;;;13.35;11.23;;;;;;;16.65;87.46;98614.78;4958252;28;20045;-65
2023/06/24 00:13:36;;;;;;;14.57;11.30;;;;;;;16.67;87.81;98610.06;4975356;28;20038;-65
2023/06/24 00:16:01;;;;;;;16.42;12.55;;;;;;;16.71;87.44;98619.44;4973296;28;20053;-68
2023/06/24 00:18:29;;;;;;;14.80;11.63;;;;;;;16.75;88.11;98603.81;4954044;28;20050;-69
2023/06/24 00:20:54;;;;;;;13.23;10.98;;;;;;;16.75;87.71;98601.94;4937920;28;20049;-70
2023/06/24 00:23:25;;;;;;;15.15;11.75;;;;;;;16.76;87.75;98611.72;4954048;28;20054;-69
2023/06/24 00:25:54;;;;;;;14.00;11.73;;;;;;;16.73;87.42;98605.81;4954016;28;20053;-69
2023/06/24 00:28:20;;;;;;;14.30;11.75;;;;;;;16.70;87.40;98615.91;4955540;28;20049;-69
2023/06/24 00:30:47;;;;;;;12.60;11.20;;;;;;;16.69;87.62;98616.13;4955749;28;20042;-67
2023/06/24 00:33:13;;;;;;;12.77;11.02;;;;;;;16.67;87.61;98608.22;4955597;28;20046;-70
2023/06/24 00:35:39;;;;;;;14.50;11.68;;;;;;;16.64;87.35;98605.03;4955419;28;20551;-67
2023/06/24 00:38:04;;;;;;;13.00;11.07;;;;;;;16.63;87.78;98604.19;4955470;28;20045;-68
2023/06/24 00:40:29;;;;;;;13.75;11.50;;;;;;;16.62;87.17;98599.81;4955642;28;20042;-71
2023/06/24 00:42:56;;;;;;;13.05;10.88;;;;;;;16.59;87.25;98599.31;4957487;28;20054;-70
2023/06/24 00:45:22;;;;;;;14.70;12.05;;;;;;;16.56;87.48;98599.63;4959341;28;20041;-69
2023/06/24 00:47:49;;;;;;;13.63;11.18;;;;;;;16.55;87.67;98597.97;4960891;28;20505;-66
2023/06/24 00:50:17;;;;;;;14.48;12.10;;;;;;;16.52;87.74;98593.75;4939015;28;20043;-68
2023/06/24 00:52:43;;;;;;;17.58;11.77;;;;;;;16.50;87.34;98584.16;4952124;28;20054;-67
2023/06/24 00:55:14;;;;;;;13.50;10.57;;;;;;;16.49;87.56;98587.88;4974379;28;20054;-68
2023/06/24 00:57:41;;;;;;;14.73;12.45;;;;;;;16.45;88.14;98586.56;4959219;28;20432;-70
2023/06/24 01:00:10;;;;;;;15.18;10.80;;;;;;;16.43;88.06;98589.41;4959358;28;20116;-70
2023/06/24 01:02:37;;;;;;;16.88;12.10;;;;;;;16.43;87.71;98583.19;4941425;28;20050;-67
2023/06/24 01:05:05;;;;;;;15.63;12.02;;;;;;;16.45;87.85;98591.94;4957094;28;20047;-66
2023/06/24 01:07:31;;;;;;;14.70;10.35;;;;;;;16.47;88.29;98595.28;4957520;28;20057;-67
2023/06/24 01:09:57;;;;;;;17.00;12.35;;;;;;;16.50;88.56;98589.53;4957945;28;20046;-66
2023/06/24 01:12:22;;;;;;;15.27;11.10;;;;;;;16.58;88.55;98594.94;4957916;28;20034;-66
2023/06/24 01:14:48;;;;;;;15.40;11.77;;;;;;;16.67;88.16;98597.44;4958997;28;20057;-67
2023/06/24 01:17:17;;;;;;;28.45;11.90;;;;;;;16.77;87.84;98591.00;4958673;28;20038;-65
2023/06/24 01:20:04;;;;;;;12.70;10.75;;;;;;;16.93;87.66;98590.97;4958901;28;20121;-70
2023/06/24 01:22:47;;;;;;;14.27;12.32;;;;;;;16.94;87.33;98600.69;4958365;28;20523;-68
2023/06/24 01:25:43;;;;;;;15.75;11.98;;;;;;;17.04;86.81;98598.66;4957498;28;20501;-70
2023/06/24 01:28:27;;;;;;;16.48;12.02;;;;;;;17.12;86.51;98592.38;4957292;28;20409;-69
2023/06/24 01:30:56;;;;;;;13.45;11.07;;;;;;;17.15;86.30;98589.31;4957706;28;20050;-67
2023/06/24 01:33:31;;;;;;;14.02;11.63;;;;;;;17.22;85.47;98590.28;4957059;28;20065;-67
2023/06/24 01:35:58;;;;;;;16.25;11.40;;;;;;;17.25;85.49;98598.03;4957410;28;20050;-69
2023/06/24 01:38:48;;;;;;;15.93;11.20;;;;;;;17.36;84.97;98589.53;4956642;28;20054;-68
2023/06/24 01:41:20;;;;;;;15.18;11.32;;;;;;;17.31;84.95;98591.91;4956781;28;20057;-70
2023/06/24 01:43:47;;;;;;;14.32;11.15;;;;;;;17.28;84.30;98592.25;4958128;28;20049;-69
2023/06/24 01:46:16;;;;;;;14.68;11.27;;;;;;;17.29;84.29;98596.63;4958294;28;20042;-67
2023/06/24 01:48:45;;;;;;;16.90;11.05;;;;;;;17.29;84.00;98589.38;4957238;28;20497;-68
2023/06/24 01:51:13;;;;;;;13.05;10.70;;;;;;;17.32;83.86;98593.59;4956961;28;20501;-68
2023/06/24 01:53:42;;;;;;;12.68;10.23;;;;;;;17.34;84.05;98600.47;4955719;28;20057;-68
2023/06/24 01:56:12;;;;;;;15.25;10.73;;;;;;;17.38;83.83;98595.59;4956573;28;20517;-66
2023/06/24 01:58:39;;;;;;;9.82;8.05;;;;;;;17.37;83.73;98602.00;4957041;28;20057;-67
2023/06/24 02:01:05;;;;;;;9.32;7.10;;;;;;;17.37;83.58;98599.28;4957039;28;20046;-69
2023/06/24 02:03:32;;;;;;;8.32;6.70;;;;;;;17.39;82.82;98599.94;4957955;28;20538;-66
2023/06/24 02:05:59;;;;;;;8.52;6.50;;;;;;;17.37;82.11;98602.00;4958258;28;20493;-67
2023/06/24 02:08:28;;;;;;;8.75;5.95;;;;;;;17.37;81.61;98604.69;4956625;28;20050;-70
2023/06/24 02:10:55;;;;;;;7.28;5.53;;;;;;;17.38;81.13;98606.38;4971852;28;20037;-67
2023/06/24 02:13:22;;;;;;;7.32;4.95;;;;;;;17.37;80.96;98621.69;4977482;28;20053;-68
2023/06/24 02:15:48;;;;;;;9.82;5.00;;;;;;;17.39;80.61;98618.78;4976022;28;20444;-66
2023/06/24 02:18:17;;;;;;;6.43;4.32;;;;;;;17.39;80.21;98618.78;4976324;28;20710;-68
2023/06/24 02:20:44;;;;;;;6.53;4.10;;;;;;;17.38;80.04;98617.13;4976139;28;20050;-67
2023/06/24 02:23:10;;;;;;;3.80;3.45;;;;;;;17.37;78.90;98615.47;4980627;28;20057;-67
2023/06/24 02:25:38;;;;;;;6.20;3.30;;;;;;;17.38;78.80;98619.84;4953686;28;20042;-67
2023/06/24 02:28:05;;;;;;;4.93;4.20;;;;;;;17.37;78.87;98616.31;4957557;28;20049;-67
2023/06/24 02:30:36;;;;;;;3.83;3.35;;;;;;;17.39;78.28;98627.72;4940600;28;20053;-69
2023/06/24 02:33:02;;;;;;;3.40;3.05;;;;;;;17.42;77.99;98621.13;4955939;28;20046;-68
2023/06/24 02:35:27;;;;;;;3.47;3.17;;;;;;;17.39;77.39;98619.63;4957033;28;20156;-64
2023/06/24 02:37:53;;;;;;;3.45;2.60;;;;;;;17.39;77.25;98614.25;4956501;28;20038;-65
2023/06/24 02:40:18;;;;;;;2.97;2.72;;;;;;;17.38;77.29;98611.75;4939964;28;20054;-66
2023/06/24 02:42:43;;;;;;;4.03;2.58;;;;;;;17.39;77.29;98626.88;4956281;28;20038;-66
2023/06/24 02:45:09;;;;;;;2.95;2.65;;;;;;;17.36;77.36;98621.88;4957281;28;20493;-66
2023/06/24 02:47:36;;;;;;;3.28;2.90;;;;;;;17.39;77.16;98624.19;4957240;28;20125;-66
2023/06/24 02:50:04;;;;;;;2.35;2.15;;;;;;;17.38;76.82;98625.22;4956043;28;20054;-67
2023/06/24 02:52:32;;;;;;;2.78;2.55;;;;;;;17.38;77.13;98617.13;4939629;28;20046;-67
2023/06/24 02:54:58;;;;;;;2.80;2.60;;;;;;;17.40;76.89;98620.47;4955928;28;20409;-69
2023/06/24 02:57:46;;;;;;;2.97;2.67;;;;;;;17.42;76.54;98623.84;4957086;28;20054;-66
2023/06/24 03:00:35;;;;;;;4.38;3.17;;;;;;;17.43;76.34;98628.22;4975443;28;20046;-66
2023/06/24 03:03:07;;;;;;;3.88;3.38;;;;;;;17.43;76.82;98622.81;4976783;28;20042;-66
2023/06/24 03:05:35;;;;;;;2.85;2.65;;;;;;;17.44;76.31;98621.81;4970023;28;20046;-66
2023/06/24 03:08:03;;;;;;;3.08;2.78;;;;;;;17.45;76.71;98614.56;4955972;28;20741;-67
2023/06/24 03:10:29;;;;;;;3.35;2.97;;;;;;;17.43;76.61;98614.72;4939773;28;20797;-67
2023/06/24 03:12:56;;;;;;;3.05;2.70;;;;;;;17.39;76.31;98614.25;4955689;28;20057;-66
2023/06/24 03:15:28;;;;;;;2.90;2.63;;;;;;;17.37;76.78;98623.53;4939218;28;20050;-66
2023/06/24 03:17:54;;;;;;;2.58;2.33;;;;;;;17.34;76.66;98615.81;4939240;28;20053;-66
2023/06/24 03:20:21;;;;;;;3.00;2.53;;;;;;;17.34;76.35;98619.34;4938987;28;20401;-66
2023/06/24 03:22:46;;;;;;;3.30;2.50;;;;;;;17.36;76.76;98619.16;4955320;28;20405;-68
2023/06/24 03:25:14;;;;;;;2.75;2.47;;;;;;;17.38;76.53;98615.25;4939018;28;20506;-66
2023/06/24 03:27:41;;;;;;;4.03;2.05;;;;;;;17.37;76.59;98612.75;4954999;28;20053;-67
2023/06/24 03:30:07;;;;;;;3.05;2.75;;;;;;;17.36;76.25;98619.16;4955504;28;20050;-69
2023/06/24 03:32:35;;;;;;;5.50;2.55;;;;;;;17.33;75.84;98614.13;4955548;28;20042;-68
2023/06/24 03:35:00;;;;;;;2.50;2.30;;;;;;;17.32;76.27;98618.66;4954725;28;20049;-71
2023/06/24 03:37:29;;;;;;;2.67;2.45;;;;;;;17.31;76.23;98614.28;4955174;28;20038;-72
2023/06/24 03:39:56;;;;;;;4.15;2.80;;;;;;;17.30;76.67;98622.56;4955184;28;20049;-72
2023/06/24 03:42:21;;;;;;;4.03;2.70;;;;;;;17.27;76.59;98623.75;4954428;28;20057;-72
2023/06/24 03:44:46;;;;;;;2.13;2.03;;;;;;;17.26;76.57;98618.56;4956610;28;20054;-72
2023/06/24 03:47:11;;;;;;;3.25;2.03;;;;;;;17.29;76.64;98626.25;4956096;28;20450;-71
2023/06/24 03:49:37;;;;;;;3.80;2.17;;;;;;;17.31;76.93;98626.94;4938725;28;20061;-73
2023/06/24 03:52:03;;;;;;;5.45;2.47;;;;;;;17.35;76.63;98622.88;4938693;28;20057;-72
2023/06/24 03:54:28;;;;;;;3.92;2.33;;;;;;;17.37;76.52;98634.31;4955072;28;20081;-72
2023/06/24 03:56:54;;;;;;;3.20;2.30;;;;;;;17.39;76.63;98629.56;4939143;28;20050;-72
2023/06/24 03:59:20;;;;;;;5.63;2.55;;;;;;;17.39;76.28;98632.25;4922696;28;20065;-70
2023/06/24 04:01:45;;;;;;;2.75;2.20;;;;;;;17.39;76.52;98633.09;4954994;28;20050;-71
2023/06/24 04:04:10;;;;;;;2.80;2.55;;;;;;;17.38;76.14;98638.69;4954678;28;20034;-68
2023/06/24 04:06:35;;;;;;;5.25;2.53;;;;;;;17.37;76.31;98642.41;4958101;28;20050;-69
2023/06/24 04:09:02;;;;;;;3.08;2.42;;;;;;;17.32;75.99;98640.22;4969812;28;20042;-69
2023/06/24 04:11:27;;;;;;;3.47;2.20;;;;;;;17.31;76.07;98627.78;4967280;28;20555;-69
2023/06/24 04:13:52;;;;;;;2.33;2.13;;;;;;;17.30;75.71;98633.31;4947117;28;20057;-70
2023/06/24 04:16:18;;;;;;;4.68;2.10;;;;;;;17.28;76.02;98635.34;4954202;28;20042;-68
2023/06/24 04:18:43;;;;;;;2.28;1.98;;;;;;;17.30;75.94;98641.41;4954278;28;20057;-69
2023/06/24 04:21:09;;;;;;;5.57;3.33;;;;;;;17.29;75.42;98637.88;4970933;28;20038;-70
2023/06/24 04:23:34;;;;;;;3.55;2.40;;;;;;;17.30;75.40;98641.41;4971025;28;20066;-69
2023/06/24 04:25:59;;;;;;;2.80;2.13;;;;;;;17.27;75.19;98641.75;4956044;28;20038;-69
2023/06/24 04:28:25;;;;;;;5.90;2.30;;;;;;;17.27;74.83;98644.44;4970966;28;20053;-72
2023/06/24 04:30:51;;;;;;;2.47;2.03;;;;;;;17.34;75.35;98658.91;4971791;28;20057;-70
2023/06/24 04:33:16;;;;;;;2.20;2.00;;;;;;;17.41;75.38;98654.47;4954762;28;20148;-71
2023/06/24 04:35:44;;;;;;;3.05;2.47;;;;;;;17.45;75.11;98663.91;4954786;28;20042;-70
2023/06/24 04:38:09;;;;;;;4.82;2.92;;;;;;;17.49;75.26;98667.94;4938663;28;20050;-70
2023/06/24 04:40:34;;;;;;;4.35;2.60;;;;;;;17.53;75.20;98665.69;4954661;28;20505;-70
2023/06/24 04:43:00;;;;;;;2.78;2.13;;;;;;;17.55;74.77;98667.22;4954455;28;20054;-70
2023/06/24 04:45:25;;;;;;;2.40;2.17;;;;;;;17.59;74.31;98671.25;4955919;28;20045;-70
2023/06/24 04:47:51;;;;;;;2.30;2.10;;;;;;;17.66;74.16;98668.69;4955741;28;20069;-70
2023/06/24 04:50:17;;;;;;;2.25;1.70;;;;;;;17.74;74.04;98672.16;4955577;28;20050;-70
2023/06/24 04:52:42;;;;;;;1.67;1.58;;;;;;;17.82;73.88;98673.16;4954438;28;20497;-70
2023/06/24 04:55:08;;;;;;;2.95;1.48;;;;;;;17.84;73.23;98679.16;4955825;28;20921;-70
2023/06/24 04:57:34;;;;;;;3.20;2.15;;;;;;;17.87;72.63;98670.72;4954635;28;20508;-70
2023/06/24 04:59:59;;;;;;;5.55;1.65;;;;;;;17.89;72.29;98680.31;4954191;28;20050;-69
2023/06/24 05:02:25;;;;;;;3.22;2.35;;;;;;;17.93;72.24;98675.44;4955587;28;20049;-69
2023/06/24 05:04:51;;;;;;;2.85;2.13;;;;;;;17.98;72.02;98683.78;4954273;28;20057;-70
2023/06/24 05:07:17;;;;;;;1.77;1.67;;;;;;;18.00;71.96;98679.06;4955420;28;20050;-69
2023/06/24 05:09:43;;;;;;;7.30;2.08;;;;;;;18.05;71.70;98679.38;4955376;28;20054;-70
2023/06/24 05:12:09;;;;;;;1.70;1.60;;;;;;;18.12;71.74;98680.31;4955446;28;20042;-70
2023/06/24 05:14:35;;;;;;;3.03;2.10;;;;;;;18.22;71.38;98680.91;4955277;28;20405;-70
2023/06/24 05:17:00;;;;;;;5.18;1.77;;;;;;;18.40;71.24;98678.72;4954103;28;20057;-69
2023/06/24 05:19:25;;;;;;;1.90;1.75;;;;;;;18.62;70.92;98693.25;4955385;28;20046;-70
2023/06/24 05:21:50;;;;;;;2.67;1.83;;;;;;;18.75;69.80;98681.78;4955340;28;20042;-71
2023/06/24 05:24:15;;;;;;;2.22;2.03;;;;;;;18.84;69.42;98681.53;4953857;28;20054;-70
2023/06/24 05:26:41;;;;;;;5.47;2.45;;;;;;;18.88;68.73;98676.56;4955464;28;20045;-69
2023/06/24 05:29:06;;;;;;;5.13;2.40;;;;;;;18.95;68.74;98680.22;4956685;28;20057;-69
2023/06/24 05:31:31;;;;;;;2.47;2.28;;;;;;;19.04;68.48;98664.75;4959414;28;20046;-69
2023/06/24 05:33:56;;;;;;;3.75;2.92;;;;;;;19.13;68.48;98667.16;4956976;28;20053;-70
2023/06/24 05:36:21;;;;;;;2.95;2.28;;;;;;;19.15;67.65;98675.09;4973822;28;20509;-69
2023/06/24 05:38:48;;;;;;;7.68;3.97;;;;;;;19.07;67.19;98676.03;4958888;28;20046;-70
2023/06/24 05:41:13;;;;;;;7.03;4.90;;;;;;;19.02;67.03;98683.00;4974019;28;20046;-69
2023/06/24 05:43:39;;;;;;;10.93;6.28;;;;;;;18.97;67.56;98686.25;4974062;28;20050;-69
2023/06/24 05:46:04;;;;;;;9.45;5.20;;;;;;;18.91;67.25;98687.03;4958672;28;20496;-69
2023/06/24 05:48:29;;;;;;;5.78;4.47;;;;;;;18.87;67.76;98674.91;4958551;28;20433;-69
2023/06/24 05:50:54;;;;;;;6.03;4.65;;;;;;;18.84;67.35;98676.13;4958760;28;20038;-69
2023/06/24 05:53:20;;;;;;;10.55;4.00;;;;;;;18.85;68.10;98685.88;4957240;28;20054;-69
2023/06/24 05:55:45;;;;;;;4.10;3.65;;;;;;;18.85;68.02;98683.19;4958616;28;20042;-69
2023/06/24 05:58:10;;;;;;;4.55;3.92;;;;;;;18.82;67.75;98682.72;4957140;28;20061;-69
2023/06/24 06:00:36;;;;;;;3.47;3.17;;;;;;;18.81;67.40;98690.00;4957356;28;20893;-68
2023/06/24 06:03:01;;;;;;;3.50;3.08;;;;;;;18.82;67.51;98688.97;4956613;28;20561;-69
2023/06/24 06:05:27;;;;;;;8.00;3.67;;;;;;;18.78;67.59;98695.75;4958489;28;20469;-68
2023/06/24 06:07:53;;;;;;;4.45;3.28;;;;;;;18.78;68.03;98692.22;4956916;28;20057;-69
2023/06/24 06:10:19;;;;;;;6.65;2.72;;;;;;;18.82;68.20;98696.25;4973361;28;20046;-69
2023/06/24 06:12:44;;;;;;;2.00;1.90;;;;;;;18.80;68.33;98684.78;4956388;28;20508;-69
2023/06/24 06:15:10;;;;;;;4.68;2.25;;;;;;;18.78;67.84;98700.31;4956266;28;20046;-69
2023/06/24 06:17:35;;;;;;;4.38;3.15;;;;;;;18.75;68.42;98689.88;4958001;28;20053;-70
2023/06/24 06:20:00;;;;;;;6.57;3.40;;;;;;;18.71;68.22;98702.09;4956086;28;20050;-69
2023/06/24 06:22:25;;;;;;;4.57;3.28;;;;;;;18.72;68.48;98703.78;4957606;28;20069;-69
2023/06/24 06:24:51;;;;;;;5.47;4.07;;;;;;;18.68;68.23;98700.59;4957961;28;20051;-68
2023/06/24 06:27:16;;;;;;;5.80;4.50;;;;;;;18.68;68.54;98702.44;4957837;28;20049;-69
2023/06/24 06:29:41;;;;;;;9.00;4.72;;;;;;;18.66;68.84;98704.50;4957688;28;20401;-69
2023/06/24 06:32:07;;;;;;;6.70;4.00;;;;;;;18.61;68.83;98712.31;4956786;28;20049;-69
2023/06/24 06:34:32;;;;;;;8.10;4.50;;;;;;;18.57;68.84;98708.25;4956752;28;20753;-69
2023/06/24 06:36:57;;;;;;;7.45;3.88;;;;;;;18.57;69.04;98709.09;4957788;28;20477;-69
2023/06/24 06:39:22;;;;;;;4.65;3.63;;;;;;;18.58;69.08;98715.38;4956880;28;20046;-69
2023/06/24 06:41:47;;;;;;;4.43;3.20;;;;;;;18.54;69.17;98701.38;4957637;28;20050;-69
2023/06/24 06:44:15;;;;;;;11.20;3.40;;;;;;;18.49;69.08;98710.03;4957544;28;20050;-69
2023/06/24 06:46:41;;;;;;;4.25;3.22;;;;;;;18.45;69.40;98706.00;4972547;28;20050;-69
2023/06/24 06:49:06;;;;;;;5.55;3.00;;;;;;;18.43;69.74;98705.34;4957335;28;20405;-69
2023/06/24 06:51:31;;;;;;;4.40;2.75;;;;;;;18.39;69.78;98709.44;4957351;28;20049;-70
2023/06/24 06:53:56;;;;;;;6.05;3.42;;;;;;;18.35;69.67;98709.97;4957551;28;20049;-69
2023/06/24 06:56:25;;;;;;;3.22;2.90;;;;;;;18.38;70.21;98723.13;4955403;28;20509;-70
2023/06/24 06:58:51;;;;;;;5.82;3.63;;;;;;;18.37;69.85;98714.19;4955843;28;20046;-69
2023/06/24 07:01:18;;;;;;;6.25;3.53;;;;;;;18.37;70.08;98707.94;4955322;28;20046;-70
2023/06/24 07:03:43;;;;;;;2.85;2.63;;;;;;;18.37;69.99;98705.25;4957072;28;20042;-69
2023/06/24 07:06:08;;;;;;;3.58;2.63;;;;;;;18.42;70.26;98706.38;4956870;28;20042;-69
2023/06/24 07:08:33;;;;;;;2.55;2.35;;;;;;;18.50;69.98;98706.31;4957067;28;20042;-70
2023/06/24 07:10:59;;;;;;;5.60;2.90;;;;;;;18.63;69.73;98703.00;4956012;28;20052;-70
2023/06/24 07:13:24;;;;;;;2.70;2.47;;;;;;;18.77;69.62;98704.88;4957185;28;20386;-68
2023/06/24 07:15:49;;;;;;;4.63;3.25;;;;;;;18.91;68.87;98708.63;4957015;28;20057;-68
2023/06/24 07:18:14;;;;;;;4.50;3.83;;;;;;;18.99;68.59;98713.94;4923362;28;20050;-68
2023/06/24 07:20:39;;;;;;;5.57;3.75;;;;;;;18.99;68.46;98721.19;4957110;28;20176;-69
2023/06/24 07:23:04;;;;;;;6.13;3.45;;;;;;;18.97;68.06;98712.44;4956890;28;20046;-68
2023/06/24 07:25:30;;;;;;;3.78;3.30;;;;;;;18.92;68.26;98725.66;4957060;28;20034;-69
2023/06/24 07:27:55;;;;;;;3.78;3.40;;;;;;;18.87;68.22;98720.81;4955595;28;20057;-69
2023/06/24 07:30:21;;;;;;;3.58;3.22;;;;;;;18.87;68.85;98718.09;4955365;28;20046;-69
2023/06/24 07:32:46;;;;;;;3.40;3.10;;;;;;;18.89;68.68;98724.16;4956880;28;20515;-69
2023/06/24 07:35:13;;;;;;;4.40;3.03;;;;;;;18.91;68.33;98730.22;4956614;28;20050;-69
2023/06/24 07:37:38;;;;;;;3.45;3.13;;;;;;;18.96;68.11;98721.59;4955548;28;20042;-69
2023/06/24 07:40:05;;;;;;;3.67;3.25;;;;;;;18.99;68.39;98727.44;4971560;28;20057;-69
2023/06/24 07:42:30;;;;;;;4.07;3.15;;;;;;;19.00;67.69;98723.72;4957488;28;20524;-69
2023/06/24 07:44:55;;;;;;;6.32;3.45;;;;;;;18.97;67.81;98732.19;4954883;28;20527;-70
2023/06/24 07:47:21;;;;;;;4.15;3.47;;;;;;;18.93;67.63;98733.59;4956657;28;20038;-69
2023/06/24 07:49:46;;;;;;;4.55;3.67;;;;;;;18.95;68.11;98739.66;4955640;28;20046;-69
2023/06/24 07:52:11;;;;;;;6.25;3.45;;;;;;;18.94;67.86;98739.84;4955116;28;20042;-69
2023/06/24 07:54:36;;;;;;;6.70;3.75;;;;;;;18.91;68.10;98741.03;4955257;28;20046;-69
2023/06/24 07:57:02;;;;;;;5.72;3.78;;;;;;;18.91;68.22;98746.44;4956297;28;20405;-69
2023/06/24 07:59:28;;;;;;;7.72;4.18;;;;;;;18.87;68.04;98750.53;4955902;28;20053;-69
2023/06/24 08:01:53;;;;;;;5.50;4.00;;;;;;;18.84;68.30;98750.91;4956257;28;20046;-69
2023/06/24 08:04:18;;;;;;;6.15;4.45;;;;;;;18.84;68.47;98750.91;4956033;28;20170;-69
2023/06/24 08:06:44;;;;;;;12.88;3.92;;;;;;;18.88;68.16;98757.59;4956245;28;20035;-69
2023/06/24 08:09:09;;;;;;;5.45;3.92;;;;;;;18.94;68.64;98756.03;4954888;28;20072;-69
2023/06/24 08:11:34;;;;;;;4.30;3.55;;;;;;;18.97;68.40;98751.09;4955917;28;20034;-69
2023/06/24 08:13:59;;;;;;;5.57;3.90;;;;;;;19.02;68.26;98753.25;4954982;28;20054;-69
2023/06/24 08:16:25;;;;;;;3.88;3.38;;;;;;;19.07;68.42;98761.66;4955987;28;20053;-69
2023/06/24 08:18:50;;;;;;;7.38;3.63;;;;;;;19.09;67.90;98755.00;4956092;28;20053;-69
2023/06/24 08:21:15;;;;;;;5.35;3.50;;;;;;;19.09;67.88;98756.88;4955256;28;20049;-69
2023/06/24 08:23:41;;;;;;;5.05;3.65;;;;;;;19.04;67.89;98757.44;4955783;28;20057;-70
2023/06/24 08:26:07;;;;;;;4.82;3.80;;;;;;;18.98;67.71;98771.69;4938670;28;20051;-70
2023/06/24 08:28:32;;;;;;;9.55;3.55;;;;;;;18.91;68.25;98767.19;4954641;28;20045;-70
2023/06/24 08:30:57;;;;;;;4.60;3.78;;;;;;;18.82;68.23;98766.44;4955887;28;20501;-69
2023/06/24 08:33:22;;;;;;;7.18;3.75;;;;;;;18.77;68.58;98771.53;4954642;28;20054;-68
2023/06/24 08:35:47;;;;;;;4.35;3.38;;;;;;;18.72;68.80;98784.78;4955676;28;20046;-68
2023/06/24 08:38:13;;;;;;;4.97;4.00;;;;;;;18.69;69.01;98777.88;4955593;28;20042;-68
2023/06/24 08:40:39;;;;;;;5.10;3.90;;;;;;;18.65;69.40;98783.81;4955775;28;20413;-70
2023/06/24 08:43:05;;;;;;;6.13;4.47;;;;;;;18.62;69.48;98776.09;4955720;28;20500;-69
2023/06/24 08:45:30;;;;;;;4.50;3.53;;;;;;;18.61;69.49;98788.75;4970947;28;20050;-69
2023/06/24 08:47:56;;;;;;;5.30;3.60;;;;;;;18.57;69.36;98776.59;4955696;28;20090;-69
2023/06/24 08:50:27;;;;;;;5.43;3.80;;;;;;;18.55;69.71;98785.88;4955757;28;20050;-69
2023/06/24 08:52:52;;;;;;;8.07;4.00;;;;;;;18.47;70.04;98784.94;4955607;28;20046;-68
2023/06/24 08:55:22;;;;;;;10.27;4.60;;;;;;;18.42;70.18;98799.97;4955583;28;20049;-69
2023/06/24 08:57:47;;;;;;;6.22;3.67;;;;;;;18.30;70.61;98868.88;4969620;28;20061;-70
2023/06/24 09:00:13;;;;;;;8.38;3.95;;;;;;;18.25;70.41;98866.72;4938002;28;20046;-69
2023/06/24 09:02:38;;;;;;;5.05;3.80;;;;;;;18.20;70.63;98870.94;4939422;28;20046;-70
2023/06/24 09:05:07;;;;;;;7.90;4.50;;;;;;;18.17;71.33;98872.16;4959396;28;20046;-68
2023/06/24 09:07:33;;;;;;;5.85;4.20;;;;;;;18.17;71.54;98887.50;4942021;28;20046;-72
2023/06/24 09:10:00;;;;;;;6.15;4.05;;;;;;;18.26;71.62;98875.66;4959446;28;20046;-73
2023/06/24 09:12:26;;;;;;;10.00;4.70;;;;;;;18.30;71.50;98876.97;4958385;28;20057;-72
2023/06/24 09:14:52;;;;;;;9.68;3.47;;;;;;;18.38;71.25;98868.84;4959426;28;20049;-68
2023/06/24 09:17:18;;;;;;;8.05;3.33;;;;;;;18.48;71.03;98874.84;4959342;28;20057;-69
2023/06/24 09:19:43;;;;;;;8.07;3.95;;;;;;;18.58;70.89;98870.09;4959518;28;20042;-68
2023/06/24 09:22:17;;;;;;;6.95;4.10;;;;;;;18.66;70.60;98882.69;4958663;28;20130;-68
2023/06/24 09:24:46;;;;;;;8.65;4.10;;;;;;;18.68;70.61;98875.25;4957779;28;20142;-67
2023/06/24 09:27:21;;;;;;;10.50;4.30;;;;;;;18.71;70.43;98870.34;4957157;28;20073;-68
2023/06/24 09:29:47;;;;;;;3.67;3.33;;;;;;;18.70;70.33;98884.00;4959027;28;20050;-70
2023/06/24 09:32:13;;;;;;;6.57;3.75;;;;;;;18.67;70.61;98885.22;4958985;28;20533;-68
2023/06/24 09:34:38;;;;;;;5.65;4.00;;;;;;;18.64;70.49;98888.25;4958760;28;20046;-69
2023/06/24 09:37:04;;;;;;;5.40;4.10;;;;;;;18.59;70.61;98898.78;4957552;28;20057;-70
2023/06/24 09:39:36;;;;;;;11.82;3.60;;;;;;;18.58;71.13;98913.28;4957568;28;20054;-70
2023/06/24 09:42:02;;;;;;;4.57;3.22;;;;;;;18.50;70.94;98911.44;4973812;28;20688;-68
2023/06/24 09:44:28;;;;;;;6.82;3.67;;;;;;;18.47;71.00;98922.59;4957545;28;20045;-69
2023/06/24 09:46:55;;;;;;;6.22;3.95;;;;;;;18.45;71.23;98913.81;4958317;28;20046;-67
2023/06/24 09:49:20;;;;;;;6.25;4.20;;;;;;;18.42;71.30;98924.97;4959822;28;20049;-69
2023/06/24 09:51:47;;;;;;;6.65;4.07;;;;;;;18.39;71.46;98930.75;4957498;28;20054;-70
2023/06/24 09:54:14;;;;;;;5.85;3.92;;;;;;;18.39;71.67;98936.13;4957221;28;20083;-69
2023/06/24 09:56:45;;;;;;;7.32;4.15;;;;;;;18.42;71.80;98935.75;4956424;28;20061;-69
2023/06/24 09:59:13;;;;;;;4.97;3.85;;;;;;;18.42;71.80;98951.13;4957083;28;20042;-68
2023/06/24 10:01:40;;;;;;;8.93;5.13;;;;;;;18.44;71.56;98932.88;4956705;28;20116;-68
2023/06/24 10:04:06;;;;;;;6.85;5.35;;;;;;;18.44;71.05;98941.00;4958131;28;20077;-67
2023/06/24 10:06:33;;;;;;;8.02;5.30;;;;;;;18.41;71.32;98971.03;4957381;28;20511;-69
2023/06/24 10:09:00;;;;;;;6.50;5.40;;;;;;;18.40;71.29;98943.19;4957721;28;20041;-69
2023/06/24 10:11:25;;;;;;;12.13;5.68;;;;;;;18.39;71.62;98962.28;4972888;28;20043;-69
2023/06/24 10:13:51;;;;;;;5.40;4.90;;;;;;;18.40;71.67;98964.78;4956708;28;20440;-70
2023/06/24 10:16:17;;;;;;;6.65;5.63;;;;;;;18.42;71.79;98972.72;4957500;28;20058;-68
2023/06/24 10:18:44;;;;;;;7.10;5.82;;;;;;;18.47;71.99;98954.97;4957576;28;20049;-70
2023/06/24 10:21:10;;;;;;;9.18;6.95;;;;;;;18.47;71.85;98959.53;4955774;28;20070;-70
2023/06/24 10:23:47;;;;;;;7.00;5.85;;;;;;;18.63;71.90;98964.03;4957461;28;20084;-70
2023/06/24 10:26:28;;;;;;;8.27;6.20;;;;;;;18.70;71.57;98954.22;4956198;28;20519;-68
2023/06/24 10:29:06;;;;;;;8.43;6.07;;;;;;;18.77;71.51;98956.00;4957391;28;20405;-70
2023/06/24 10:31:39;;;;;;;7.93;5.78;;;;;;;18.78;71.13;98952.28;4957252;28;20046;-69
2023/06/24 10:34:30;;;;;;;10.38;5.85;;;;;;;18.90;70.78;98960.84;4954843;28;20038;-66
2023/06/24 10:37:01;;;;;;;8.25;5.93;;;;;;;18.89;70.38;98952.91;4957077;28;20042;-68
2023/06/24 10:39:42;;;;;;;6.60;5.55;;;;;;;18.97;70.26;98955.53;4959689;28;20053;-70
2023/06/24 10:42:25;;;;;;;6.38;5.78;;;;;;;18.93;70.29;98962.34;4955060;28;20449;-70
2023/06/24 10:44:52;;;;;;;6.38;5.78;;;;;;;18.79;70.11;98962.09;4971427;28;20053;-69
2023/06/24 10:47:17;;;;;;;7.82;5.60;;;;;;;18.81;70.83;98967.31;4952352;28;20502;-70
2023/06/24 10:49:43;;;;;;;8.50;5.93;;;;;;;18.82;70.46;98974.41;4961842;28;20042;-67
2023/06/24 10:52:12;;;;;;;9.30;5.30;;;;;;;18.83;70.79;98986.88;4957442;28;20038;-69
2023/06/24 10:54:37;;;;;;;7.45;5.72;;;;;;;18.81;70.81;98956.50;4936177;28;20057;-70
2023/06/24 10:57:04;;;;;;;9.77;6.88;;;;;;;18.76;70.68;98930.03;4955284;28;20042;-69
2023/06/24 10:59:46;;;;;;;6.80;5.93;;;;;;;18.79;71.27;98981.00;4957247;28;20053;-70
2023/06/24 11:02:16;;;;;;;7.22;6.03;;;;;;;18.69;71.00;98990.34;4955439;28;20050;-69
2023/06/24 11:04:43;;;;;;;6.20;5.43;;;;;;;18.62;71.14;99000.16;4954242;28;20501;-69
2023/06/24 11:07:09;;;;;;;7.55;6.18;;;;;;;18.67;71.36;98982.41;4957127;28;20050;-70
2023/06/24 11:09:34;;;;;;;7.43;6.60;;;;;;;18.85;71.57;98982.13;4955524;28;20061;-69
2023/06/24 11:12:02;;;;;;;5.90;5.25;;;;;;;19.00;70.85;99001.94;4955937;28;20050;-70
2023/06/24 11:14:27;;;;;;;6.20;5.60;;;;;;;19.06;70.17;98992.31;4957219;28;20050;-71
2023/06/24 11:16:53;;;;;;;8.05;5.82;;;;;;;19.02;70.15;98981.00;4955025;28;20054;-65
2023/06/24 11:19:18;;;;;;;6.97;5.13;;;;;;;18.96;70.62;98986.31;4956582;28;20042;-65
2023/06/24 11:21:43;;;;;;;8.60;5.95;;;;;;;18.92;70.28;99004.72;4953940;28;20045;-67
2023/06/24 11:24:10;;;;;;;8.73;6.57;;;;;;;18.89;70.72;98991.56;4956468;28;20065;-68
2023/06/24 11:26:36;;;;;;;7.22;6.32;;;;;;;18.89;70.48;99017.72;4954536;28;20509;-67
2023/06/24 11:29:09;;;;;;;7.63;5.82;;;;;;;18.97;70.49;98994.19;4956371;28;20440;-69